Time;durP1;ratioP1;P1;durP2;ratioP2;P2;SDS_P1;SDS_P2;PMS_P1;PMS_P2;Temp;Humidity;BMP_temperature;BMP_pressure;BME280_temperature;BME280_humidity;BME280_pressure;Samples;Min_cycle;Max_cycle;Signal;HPM_P1;HPM_P2
2021/03/09 00:01:07;;;;;;;;;;;5.10;97.50;;;;;;5071476;28;19912;-71
2021/03/09 00:03:32;;;;;;;;;;;5.10;98.20;;;;;;5072804;28;20664;-75
2021/03/09 00:05:58;;;;;;;;;;;5.00;97.90;;;;;;5079674;28;20616;-72
2021/03/09 00:08:24;;;;;;;;;;;5.00;98.00;;;;;;5073006;28;20018;-72
2021/03/09 00:10:49;;;;;;;;;;;5.00;98.80;;;;;;5053932;28;19904;-74
2021/03/09 00:13:15;;;;;;;;;;;5.00;98.20;;;;;;5083194;28;19955;-73
2021/03/09 00:15:40;;;;;;;;;;;5.00;98.80;;;;;;5072680;28;19916;-73
2021/03/09 00:18:08;;;;;;;;;;;5.00;98.80;;;;;;5072190;28;19915;-71
2021/03/09 00:20:34;;;;;;;;;;;5.00;98.70;;;;;;5074420;28;19962;-74
2021/03/09 00:22:59;;;;;;;;;;;4.90;99.10;;;;;;5086358;28;19908;-72
2021/03/09 00:25:25;;;;;;;;;;;4.90;99.70;;;;;;5071899;28;19916;-76
2021/03/09 00:27:51;;;;;;;;;;;4.90;99.80;;;;;;5072517;28;19998;-73
2021/03/09 00:30:17;;;;;;;;;;;4.90;99.90;;;;;;5072441;28;19958;-73
2021/03/09 00:32:43;;;;;;;;;;;4.90;99.90;;;;;;5072399;28;20097;-72
2021/03/09 00:35:09;;;;;;;;;;;4.80;99.90;;;;;;5072447;28;19904;-74
2021/03/09 00:37:34;;;;;;;;;;;4.80;99.90;;;;;;5072222;28;19952;-74
2021/03/09 00:40:00;;;;;;;;;;;4.80;99.90;;;;;;5085514;28;20305;-74
2021/03/09 00:42:26;;;;;;;;;;;4.70;99.90;;;;;;5092776;28;20307;-74
2021/03/09 00:44:51;;;;;;;;;;;4.60;99.90;;;;;;5092606;28;19957;-74
2021/03/09 00:47:17;;;;;;;;;;;4.60;99.90;;;;;;5092294;28;19987;-72
2021/03/09 00:49:42;;;;;;;;;;;4.60;99.90;;;;;;5083764;28;19919;-71
2021/03/09 00:52:08;;;;;;;;;;;4.50;99.90;;;;;;5078490;28;19904;-73
2021/03/09 00:54:33;;;;;;;;;;;4.50;99.90;;;;;;5072446;28;19912;-71
2021/03/09 00:56:59;;;;;;;;;;;4.50;99.90;;;;;;5072303;28;19955;-71
2021/03/09 00:59:25;;;;;;;;;;;4.40;99.90;;;;;;5072014;28;19908;-71
2021/03/09 01:01:50;;;;;;;;;;;4.40;99.90;;;;;;5071830;28;19911;-72
2021/03/09 01:04:16;;;;;;;;;;;4.30;99.90;;;;;;5072091;28;19919;-72
2021/03/09 01:06:41;;;;;;;;;;;4.30;99.90;;;;;;5054049;28;19908;-72
2021/03/09 01:09:07;;;;;;;;;;;4.30;99.90;;;;;;5071801;28;20376;-72
2021/03/09 01:11:32;;;;;;;;;;;4.30;99.90;;;;;;5072085;28;19905;-72
2021/03/09 01:13:58;;;;;;;;;;;4.30;99.90;;;;;;5071573;28;20027;-69
2021/03/09 01:16:24;;;;;;;;;;;4.30;99.90;;;;;;5071897;28;19963;-72
2021/03/09 01:18:49;;;;;;;;;;;4.30;99.90;;;;;;5081183;28;19916;-71
2021/03/09 01:21:15;;;;;;;;;;;4.30;99.90;;;;;;5054265;28;19911;-72
2021/03/09 01:23:40;;;;;;;;;;;4.20;99.90;;;;;;5071542;28;19954;-71
2021/03/09 01:26:06;;;;;;;;;;;4.20;99.90;;;;;;5072156;28;19950;-72
2021/03/09 01:28:31;;;;;;;;;;;4.20;99.90;;;;;;5072230;28;19961;-72
2021/03/09 01:30:57;;;;;;;;;;;4.20;99.90;;;;;;5072672;28;19962;-72
2021/03/09 01:33:23;;;;;;;;;;;4.20;99.90;;;;;;5075307;28;19918;-73
2021/03/09 01:35:48;;;;;;;;;;;4.20;99.90;;;;;;5081823;28;20274;-74
2021/03/09 01:38:14;;;;;;;;;;;4.10;99.90;;;;;;5073797;28;20308;-76
2021/03/09 01:40:39;;;;;;;;;;;4.10;99.90;;;;;;5094339;28;19904;-70
2021/03/09 01:43:05;;;;;;;;;;;4.10;99.90;;;;;;5099997;28;19908;-69
2021/03/09 01:45:31;;;;;;;;;;;4.10;99.90;;;;;;5096341;28;19904;-70
2021/03/09 01:48:00;;;;;;;;;;;4.10;99.90;;;;;;5096258;28;19908;-70
2021/03/09 01:50:26;;;;;;;;;;;4.10;99.90;;;;;;5095980;28;19905;-71
2021/03/09 01:52:51;;;;;;;;;;;4.00;99.90;;;;;;5097398;28;19998;-69
2021/03/09 01:55:17;;;;;;;;;;;4.00;99.90;;;;;;5100099;28;19943;-72
2021/03/09 01:57:43;;;;;;;;;;;3.90;99.90;;;;;;5101806;28;20046;-70
2021/03/09 02:00:09;;;;;;;;;;;3.90;99.90;;;;;;5090605;28;20293;-70
2021/03/09 02:02:35;;;;;;;;;;;3.90;99.90;;;;;;5093262;28;19916;-70
2021/03/09 02:05:03;;;;;;;;;;;3.90;99.90;;;;;;5096328;28;19961;-70
2021/03/09 02:07:29;;;;;;;;;;;4.00;99.90;;;;;;5078095;28;20344;-69
2021/03/09 02:09:54;;;;;;;;;;;3.90;99.90;;;;;;5095821;28;19986;-70
2021/03/09 02:12:25;;;;;;;;;;;4.00;99.90;;;;;;5095675;28;20357;-71
2021/03/09 02:15:05;;;;;;;;;;;3.90;99.90;;;;;;5095326;28;19916;-70
2021/03/09 02:17:45;;;;;;;;;;;3.90;99.90;;;;;;5096524;28;20361;-71
2021/03/09 02:20:34;;;;;;;;;;;3.90;99.90;;;;;;5095878;28;20270;-71
2021/03/09 02:23:06;;;;;;;;;;;3.80;99.90;;;;;;5084427;28;19923;-71
2021/03/09 02:25:50;;;;;;;;;;;3.70;99.90;;;;;;5096102;28;20001;-70
2021/03/09 02:28:28;;;;;;;;;;;3.70;99.90;;;;;;5095424;28;19908;-70
2021/03/09 02:30:54;;;;;;;;;;;3.70;99.90;;;;;;5095220;28;19961;-70
2021/03/09 02:33:20;;;;;;;;;;;3.80;99.90;;;;;;5094741;28;19904;-70
2021/03/09 02:36:04;;;;;;;;;;;3.60;99.90;;;;;;5094954;28;19934;-70
2021/03/09 02:38:48;;;;;;;;;;;3.60;99.90;;;;;;5081102;28;19912;-70
2021/03/09 02:41:15;;;;;;;;;;;3.60;99.90;;;;;;5095728;28;19931;-70
2021/03/09 02:43:44;;;;;;;;;;;3.60;99.90;;;;;;5094668;28;19954;-70
2021/03/09 02:46:10;;;;;;;;;;;3.70;99.90;;;;;;5095100;28;19915;-71
2021/03/09 02:48:36;;;;;;;;;;;3.70;99.90;;;;;;5094961;28;19904;-71
2021/03/09 02:51:02;;;;;;;;;;;3.70;99.90;;;;;;5094308;28;19908;-73
2021/03/09 02:53:30;;;;;;;;;;;3.70;99.90;;;;;;5094523;28;19914;-72
2021/03/09 02:55:58;;;;;;;;;;;3.70;99.90;;;;;;5094709;28;19919;-72
2021/03/09 02:58:23;;;;;;;;;;;3.60;99.90;;;;;;5094940;28;19908;-72
2021/03/09 03:00:50;;;;;;;;;;;3.50;99.90;;;;;;5095184;28;19908;-69
2021/03/09 03:03:17;;;;;;;;;;;3.50;99.90;;;;;;5094837;28;19911;-72
2021/03/09 03:05:43;;;;;;;;;;;3.30;99.90;;;;;;5094583;28;20358;-72
2021/03/09 03:08:09;;;;;;;;;;;3.40;99.90;;;;;;5094749;28;19911;-73
2021/03/09 03:10:36;;;;;;;;;;;3.40;99.90;;;;;;5094862;28;19911;-70
2021/03/09 03:13:02;;;;;;;;;;;3.40;99.90;;;;;;5094009;28;19904;-70
2021/03/09 03:15:29;;;;;;;;;;;3.40;99.90;;;;;;5094731;28;19916;-69
2021/03/09 03:17:55;;;;;;;;;;;3.40;99.90;;;;;;5094090;28;20108;-70
2021/03/09 03:20:21;;;;;;;;;;;3.30;99.90;;;;;;5094433;28;19904;-70
2021/03/09 03:22:48;;;;;;;;;;;3.30;99.90;;;;;;5094739;28;20368;-71
2021/03/09 03:25:13;;;;;;;;;;;3.60;99.90;;;;;;5094098;28;19907;-70
2021/03/09 03:27:40;;;;;;;;;;;3.30;99.90;;;;;;5076471;28;19914;-71
2021/03/09 03:30:07;;;;;;;;;;;3.30;99.90;;;;;;5094172;28;20306;-70
2021/03/09 03:32:33;;;;;;;;;;;3.20;99.90;;;;;;5093786;28;19995;-69
2021/03/09 03:34:59;;;;;;;;;;;3.10;99.90;;;;;;5094101;28;19964;-71
2021/03/09 03:37:25;;;;;;;;;;;3.00;99.90;;;;;;5070376;28;20433;-69
2021/03/09 03:39:51;;;;;;;;;;;3.00;99.90;;;;;;5085666;28;19908;-71
2021/03/09 03:42:17;;;;;;;;;;;3.00;99.90;;;;;;5094696;28;19922;-71
2021/03/09 03:44:43;;;;;;;;;;;3.00;99.90;;;;;;5094094;28;20251;-69
2021/03/09 03:47:08;;;;;;;;;;;3.10;99.90;;;;;;5093851;28;19911;-71
2021/03/09 03:49:34;;;;;;;;;;;3.00;99.90;;;;;;5093914;28;19994;-70
2021/03/09 03:52:05;;;;;;;;;;;3.10;99.90;;;;;;5075743;28;19947;-71
2021/03/09 03:54:49;;;;;;;;;;;3.10;99.90;;;;;;5079799;28;20003;-69
2021/03/09 03:57:17;;;;;;;;;;;2.90;99.90;;;;;;5093880;28;19908;-70
2021/03/09 03:59:44;;;;;;;;;;;2.90;99.90;;;;;;5093559;28;19957;-70
2021/03/09 04:02:11;;;;;;;;;;;2.80;99.90;;;;;;5093332;28;19927;-71
2021/03/09 04:04:37;;;;;;;;;;;2.80;99.90;;;;;;5093616;28;19991;-71
2021/03/09 04:07:04;;;;;;;;;;;2.80;99.90;;;;;;5093689;28;19935;-70
2021/03/09 04:09:30;;;;;;;;;;;2.70;99.90;;;;;;5093771;28;20365;-70
2021/03/09 04:11:56;;;;;;;;;;;2.60;99.90;;;;;;5093464;28;20252;-70
2021/03/09 04:14:22;;;;;;;;;;;2.70;99.90;;;;;;5092887;28;19955;-70
2021/03/09 04:16:49;;;;;;;;;;;2.80;99.90;;;;;;5093539;28;20316;-69
2021/03/09 04:19:15;;;;;;;;;;;2.80;99.90;;;;;;5093778;28;19908;-69
2021/03/09 04:21:42;;;;;;;;;;;2.80;99.90;;;;;;5093509;28;19929;-69
2021/03/09 04:24:09;;;;;;;;;;;2.70;99.90;;;;;;5093791;28;19904;-70
2021/03/09 04:26:35;;;;;;;;;;;2.60;99.90;;;;;;5093563;28;20395;-71
2021/03/09 04:29:00;;;;;;;;;;;2.70;99.90;;;;;;5093186;28;19904;-70
2021/03/09 04:31:27;;;;;;;;;;;2.60;99.90;;;;;;5093009;28;19908;-69
2021/03/09 04:33:52;;;;;;;;;;;2.50;99.90;;;;;;5093747;28;19904;-70
2021/03/09 04:36:19;;;;;;;;;;;2.60;99.90;;;;;;5092810;28;20369;-70
2021/03/09 04:38:46;;;;;;;;;;;2.60;99.90;;;;;;5079324;28;20301;-70
2021/03/09 04:41:11;;;;;;;;;;;2.60;99.90;;;;;;5093546;28;19904;-69
2021/03/09 04:43:37;;;;;;;;;;;2.70;99.90;;;;;;5080816;28;19918;-69
2021/03/09 04:46:03;;;;;;;;;;;2.60;99.90;;;;;;5073126;28;20293;-69
2021/03/09 04:48:29;;;;;;;;;;;2.60;99.90;;;;;;5073208;28;19909;-70
2021/03/09 04:51:02;;;;;;;;;;;2.90;99.90;;;;;;5083713;28;19904;-69
2021/03/09 04:53:29;;;;;;;;;;;2.50;99.90;;;;;;5075601;28;19904;-69
2021/03/09 04:55:58;;;;;;;;;;;3.00;99.90;;;;;;5073000;28;19912;-72
2021/03/09 04:58:23;;;;;;;;;;;2.70;99.90;;;;;;5073081;28;19909;-72
2021/03/09 05:00:49;;;;;;;;;;;2.70;99.90;;;;;;5073446;28;19909;-73
2021/03/09 05:03:15;;;;;;;;;;;2.90;99.90;;;;;;5073008;28;19905;-70
2021/03/09 05:05:40;;;;;;;;;;;2.40;99.90;;;;;;5072856;28;19973;-68
2021/03/09 05:08:06;;;;;;;;;;;2.30;99.90;;;;;;5073078;28;20373;-69
2021/03/09 05:10:31;;;;;;;;;;;2.30;99.90;;;;;;5054735;28;20323;-70
2021/03/09 05:12:57;;;;;;;;;;;2.30;99.90;;;;;;5072597;28;20381;-70
2021/03/09 05:15:23;;;;;;;;;;;2.20;99.90;;;;;;5076037;28;19917;-69
2021/03/09 05:17:48;;;;;;;;;;;2.40;99.90;;;;;;5076323;28;19923;-69
2021/03/09 05:20:15;;;;;;;;;;;2.50;99.90;;;;;;5076670;28;19985;-69
2021/03/09 05:22:41;;;;;;;;;;;2.20;99.90;;;;;;5076640;28;19912;-70
2021/03/09 05:25:08;;;;;;;;;;;2.50;99.90;;;;;;5076352;28;19904;-70
2021/03/09 05:27:34;;;;;;;;;;;2.60;99.90;;;;;;5076451;28;19915;-70
2021/03/09 05:30:00;;;;;;;;;;;;;;;;;;5076379;28;19905;-70
2021/03/09 05:32:25;;;;;;;;;;;2.60;99.90;;;;;;5075790;28;19905;-71
2021/03/09 05:34:51;;;;;;;;;;;2.70;99.90;;;;;;5075937;28;19911;-70
2021/03/09 05:37:17;;;;;;;;;;;2.80;99.90;;;;;;5076298;28;19994;-71
2021/03/09 05:39:43;;;;;;;;;;;2.80;99.90;;;;;;5087109;28;19961;-71
2021/03/09 05:42:08;;;;;;;;;;;2.90;99.90;;;;;;5096310;28;19943;-71
2021/03/09 05:44:34;;;;;;;;;;;2.90;99.90;;;;;;5096630;28;19908;-71
2021/03/09 05:47:04;;;;;;;;;;;2.80;99.90;;;;;;5096253;28;19912;-70
2021/03/09 05:49:29;;;;;;;;;;;2.80;99.90;;;;;;5096395;28;20364;-71
2021/03/09 05:51:55;;;;;;;;;;;2.90;99.90;;;;;;5095940;28;19911;-69
2021/03/09 05:54:24;;;;;;;;;;;3.00;99.90;;;;;;5095170;28;19911;-70
2021/03/09 05:56:49;;;;;;;;;;;3.00;99.90;;;;;;5095945;28;19934;-71
2021/03/09 05:59:15;;;;;;;;;;;3.00;99.90;;;;;;5096178;28;20401;-72
2021/03/09 06:01:41;;;;;;;;;;;3.00;99.90;;;;;;5096074;28;19904;-71
2021/03/09 06:04:06;;;;;;;;;;;3.00;99.90;;;;;;5096088;28;19904;-69
2021/03/09 06:06:32;;;;;;;;;;;3.00;99.90;;;;;;5095682;28;19904;-71
2021/03/09 06:08:58;;;;;;;;;;;3.00;99.90;;;;;;5095856;28;20358;-71
2021/03/09 06:11:24;;;;;;;;;;;2.90;99.90;;;;;;5096291;28;19908;-70
2021/03/09 06:13:50;;;;;;;;;;;3.00;99.90;;;;;;5094925;28;20377;-70
2021/03/09 06:16:16;;;;;;;;;;;3.10;99.90;;;;;;5077975;28;20257;-70
2021/03/09 06:18:57;;;;;;;;;;;3.10;99.90;;;;;;5096432;28;19908;-73
2021/03/09 06:21:23;;;;;;;;;;;3.20;99.90;;;;;;5095165;28;19986;-70
2021/03/09 06:23:49;;;;;;;;;;;3.20;99.90;;;;;;5095964;28;19912;-69
2021/03/09 06:26:33;;;;;;;;;;;3.00;99.90;;;;;;5095538;28;19908;-70
2021/03/09 06:29:12;;;;;;;;;;;3.20;99.90;;;;;;5095584;28;19904;-71
2021/03/09 06:31:38;;;;;;;;;;;3.20;99.90;;;;;;5095625;28;19908;-72
2021/03/09 06:34:22;;;;;;;;;;;3.10;99.90;;;;;;5094634;28;19908;-72
2021/03/09 06:37:06;;;;;;;;;;;3.10;99.90;;;;;;5094407;28;19908;-67
2021/03/09 06:39:50;;;;;;;;;;;3.20;99.90;;;;;;5084246;28;19954;-72
2021/03/09 06:42:18;;;;;;;;;;;3.10;99.90;;;;;;5095073;28;19911;-71
2021/03/09 06:44:47;;;;;;;;;;;3.20;99.90;;;;;;5095170;28;19904;-71
2021/03/09 06:47:13;;;;;;;;;;;3.20;99.90;;;;;;5095265;28;20360;-71
2021/03/09 06:49:49;;;;;;;;;;;3.10;99.90;;;;;;5094821;28;19904;-69
2021/03/09 06:52:14;;;;;;;;;;;3.20;99.90;;;;;;5091672;28;19908;-70
2021/03/09 06:54:44;;;;;;;;;;;3.30;99.90;;;;;;5087097;28;19949;-71
2021/03/09 06:57:10;;;;;;;;;;;3.30;99.90;;;;;;5083467;28;19976;-73
2021/03/09 06:59:36;;;;;;;;;;;3.30;99.90;;;;;;5076265;28;19919;-70
2021/03/09 07:02:12;;;;;;;;;;;3.40;99.90;;;;;;5061759;28;19908;-70
2021/03/09 07:04:39;;;;;;;;;;;3.50;99.90;;;;;;5077851;28;20034;-70
2021/03/09 07:07:05;;;;;;;;;;;3.60;99.90;;;;;;5078457;28;19908;-70
2021/03/09 07:09:31;;;;;;;;;;;3.70;99.90;;;;;;5074064;28;20369;-70
2021/03/09 07:11:57;;;;;;;;;;;3.90;99.90;;;;;;5074142;28;20277;-70
2021/03/09 07:14:23;;;;;;;;;;;4.10;99.90;;;;;;5076139;28;19930;-70
2021/03/09 07:16:49;;;;;;;;;;;4.00;99.90;;;;;;5061184;28;19908;-71
2021/03/09 07:19:35;;;;;;;;;;;4.10;99.90;;;;;;5077696;28;19958;-71
2021/03/09 07:22:02;;;;;;;;;;;3.90;99.90;;;;;;5076648;28;19912;-71
2021/03/09 07:24:28;;;;;;;;;;;3.80;99.90;;;;;;5078761;28;19909;-70
2021/03/09 07:26:56;;;;;;;;;;;3.60;99.90;;;;;;5074066;28;20325;-70
2021/03/09 07:29:23;;;;;;;;;;;3.90;99.90;;;;;;5074433;28;19904;-70
2021/03/09 07:31:49;;;;;;;;;;;4.20;99.90;;;;;;5073716;28;19938;-69
2021/03/09 07:34:16;;;;;;;;;;;4.00;99.90;;;;;;5079574;28;19933;-70
2021/03/09 07:36:42;;;;;;;;;;;3.80;99.90;;;;;;5082604;28;19944;-69
2021/03/09 07:39:08;;;;;;;;;;;3.80;99.90;;;;;;5079449;28;19962;-71
2021/03/09 07:41:35;;;;;;;;;;;4.00;99.90;;;;;;5087598;28;19904;-69
2021/03/09 07:44:01;;;;;;;;;;;4.10;99.90;;;;;;5090664;28;19926;-70
2021/03/09 07:46:26;;;;;;;;;;;4.40;99.90;;;;;;5082308;28;20368;-69
2021/03/09 07:48:53;;;;;;;;;;;4.60;99.90;;;;;;5074196;28;19908;-68
2021/03/09 07:51:18;;;;;;;;;;;4.80;99.90;;;;;;5083884;28;19904;-70
2021/03/09 07:54:04;;;;;;;;;;;4.90;99.90;;;;;;5088248;28;20052;-71
2021/03/09 07:56:30;;;;;;;;;;;4.80;99.90;;;;;;5059486;28;20441;-71
2021/03/09 07:59:05;;;;;;;;;;;5.00;99.90;;;;;;5089980;28;19915;-71
2021/03/09 08:01:46;;;;;;;;;;;5.10;99.90;;;;;;5082133;28;19919;-70
2021/03/09 08:04:12;;;;;;;;;;;5.10;99.90;;;;;;5081096;28;19953;-70
2021/03/09 08:06:42;;;;;;;;;;;5.20;99.90;;;;;;5092270;28;19978;-73
2021/03/09 08:09:28;;;;;;;;;;;5.00;99.90;;;;;;5076415;28;20497;-72
2021/03/09 08:11:53;;;;;;;;;;;4.70;99.90;;;;;;5076442;28;20112;-71
2021/03/09 08:14:20;;;;;;;;;;;4.90;99.90;;;;;;5075174;28;20413;-71
2021/03/09 08:16:48;;;;;;;;;;;5.20;99.90;;;;;;5073653;28;20003;-72
2021/03/09 08:19:26;;;;;;;;;;;5.30;99.90;;;;;;5062670;28;19924;-72
2021/03/09 08:21:59;;;;;;;;;;;5.30;99.90;;;;;;5074165;28;20379;-73
2021/03/09 08:24:40;;;;;;;;;;;5.40;99.90;;;;;;5073105;28;19970;-71
2021/03/09 08:27:05;;;;;;;;;;;5.60;99.90;;;;;;5073872;28;20386;-73
2021/03/09 08:29:32;;;;;;;;;;;5.70;99.90;;;;;;5057938;28;19911;-74
2021/03/09 08:32:16;;;;;;;;;;;5.70;99.90;;;;;;5071880;28;19908;-74
2021/03/09 08:34:42;;;;;;;;;;;5.70;99.90;;;;;;5071129;28;20362;-71
2021/03/09 08:37:26;;;;;;;;;;;6.20;99.90;;;;;;5071745;28;19915;-71
2021/03/09 08:40:05;;;;;;;;;;;6.30;99.90;;;;;;5071292;28;19908;-70
2021/03/09 08:42:50;;;;;;;;;;;6.50;99.90;;;;;;5074227;28;19909;-72
2021/03/09 08:45:42;;;;;;;;;;;6.60;99.90;;;;;;5071354;28;20338;-75
2021/03/09 08:48:11;;;;;;;;;;;;;;;;;;5046354;28;19909;-70
2021/03/09 08:50:38;;;;;;;;;;;6.60;99.90;;;;;;5078897;28;19914;-70
2021/03/09 08:53:03;;;;;;;;;;;6.30;99.90;;;;;;5077583;28;19915;-71
2021/03/09 08:55:29;;;;;;;;;;;6.90;99.90;;;;;;5076390;28;19990;-71
2021/03/09 08:57:55;;;;;;;;;;;6.60;99.90;;;;;;5075856;28;19923;-70
2021/03/09 09:00:21;;;;;;;;;;;6.90;94.10;;;;;;5077481;28;20346;-75
2021/03/09 09:02:46;;;;;;;;;;;7.00;91.80;;;;;;5068466;28;19947;-72
2021/03/09 09:05:12;;;;;;;;;;;7.40;93.50;;;;;;5080775;28;20362;-73
2021/03/09 09:07:42;;;;;;;;;;;7.50;92.20;;;;;;5081555;28;20365;-71
2021/03/09 09:10:07;;;;;;;;;;;7.60;90.50;;;;;;5076717;28;19916;-72
2021/03/09 09:12:37;;;;;;;;;;;7.70;84.50;;;;;;5077800;28;19904;-72
2021/03/09 09:15:06;;;;;;;;;;;7.60;91.40;;;;;;5058573;28;20333;-71
2021/03/09 09:17:32;;;;;;;;;;;7.70;92.00;;;;;;5081660;28;19908;-71
2021/03/09 09:19:59;;;;;;;;;;;7.80;91.20;;;;;;5075852;28;19912;-72
2021/03/09 09:22:25;;;;;;;;;;;7.60;85.00;;;;;;5076219;28;19909;-72
2021/03/09 09:24:58;;;;;;;;;;;7.60;85.50;;;;;;5058409;28;19911;-71
2021/03/09 09:27:24;;;;;;;;;;;7.60;85.40;;;;;;5076460;28;19904;-72
2021/03/09 09:29:56;;;;;;;;;;;7.90;86.30;;;;;;5059287;28;20320;-70
2021/03/09 09:32:22;;;;;;;;;;;;;;;;;;5075817;28;19954;-70
2021/03/09 09:34:56;;;;;;;;;;;7.40;83.40;;;;;;5075483;28;21253;-71
2021/03/09 09:37:21;;;;;;;;;;;7.90;85.50;;;;;;5075324;28;19915;-74
2021/03/09 09:39:47;;;;;;;;;;;8.00;88.40;;;;;;5076282;28;19908;-71
2021/03/09 09:42:13;;;;;;;;;;;8.30;82.70;;;;;;5075936;28;19944;-73
2021/03/09 09:44:39;;;;;;;;;;;8.40;80.80;;;;;;5076117;28;19908;-74
2021/03/09 09:47:06;;;;;;;;;;;8.10;79.80;;;;;;5057952;28;19904;-72
2021/03/09 09:49:31;;;;;;;;;;;8.30;78.40;;;;;;5075766;28;19974;-72
2021/03/09 09:51:57;;;;;;;;;;;8.40;77.70;;;;;;5075556;28;19912;-71
2021/03/09 09:54:23;;;;;;;;;;;8.50;76.00;;;;;;5075343;28;19947;-71
2021/03/09 09:56:49;;;;;;;;;;;8.50;74.40;;;;;;5074645;28;19970;-70
2021/03/09 09:59:27;;;;;;;;;;;8.60;73.40;;;;;;5075026;28;19916;-72
2021/03/09 10:01:53;;;;;;;;;;;8.20;75.40;;;;;;5075916;28;20343;-71
2021/03/09 10:04:19;;;;;;;;;;;8.20;74.30;;;;;;5059940;28;19908;-70
2021/03/09 10:06:46;;;;;;;;;;;8.40;74.70;;;;;;5075416;28;20273;-71
2021/03/09 10:09:20;;;;;;;;;;;8.30;73.80;;;;;;5075040;28;19908;-69
2021/03/09 10:11:45;;;;;;;;;;;8.30;73.40;;;;;;5074658;28;19904;-71
2021/03/09 10:14:11;;;;;;;;;;;8.30;75.50;;;;;;5074724;28;19916;-69
2021/03/09 10:16:37;;;;;;;;;;;8.40;74.00;;;;;;5057216;28;19993;-72
2021/03/09 10:19:03;;;;;;;;;;;8.50;73.00;;;;;;5079830;28;19947;-71
2021/03/09 10:21:33;;;;;;;;;;;8.80;68.50;;;;;;5078498;28;19989;-69
2021/03/09 10:24:00;;;;;;;;;;;8.70;68.80;;;;;;5075446;28;20354;-71
2021/03/09 10:26:25;;;;;;;;;;;8.70;72.40;;;;;;5075112;28;19911;-73
2021/03/09 10:29:11;;;;;;;;;;;8.90;68.70;;;;;;5084060;28;20277;-70
2021/03/09 10:31:38;;;;;;;;;;;8.80;67.90;;;;;;5076191;28;20407;-69
2021/03/09 10:34:04;;;;;;;;;;;8.70;69.40;;;;;;5074203;28;19965;-70
2021/03/09 10:36:48;;;;;;;;;;;9.00;70.40;;;;;;5075066;28;19952;-69
2021/03/09 10:39:14;;;;;;;;;;;8.90;70.30;;;;;;5063817;28;19955;-70
2021/03/09 10:41:40;;;;;;;;;;;8.80;69.80;;;;;;5095371;28;19904;-70
2021/03/09 10:44:05;;;;;;;;;;;8.80;69.90;;;;;;5095286;28;19904;-71
2021/03/09 10:46:34;;;;;;;;;;;9.00;70.10;;;;;;5095029;28;19904;-70
2021/03/09 10:49:00;;;;;;;;;;;9.20;68.90;;;;;;5093060;28;19954;-71
2021/03/09 10:51:26;;;;;;;;;;;9.30;68.20;;;;;;5075154;28;19912;-71
2021/03/09 10:53:51;;;;;;;;;;;9.40;69.70;;;;;;5076414;28;19905;-75
2021/03/09 10:56:17;;;;;;;;;;;9.20;67.20;;;;;;5079824;28;19912;-72
2021/03/09 10:58:42;;;;;;;;;;;9.20;66.30;;;;;;5074089;28;19912;-70
2021/03/09 11:01:08;;;;;;;;;;;9.20;67.70;;;;;;5063013;28;19912;-70
2021/03/09 11:03:34;;;;;;;;;;;9.40;68.30;;;;;;5057592;28;19919;-71
2021/03/09 11:05:59;;;;;;;;;;;9.30;67.70;;;;;;5073480;28;19935;-72
2021/03/09 11:08:25;;;;;;;;;;;9.50;66.60;;;;;;5073463;28;20265;-70
2021/03/09 11:10:51;;;;;;;;;;;9.50;67.00;;;;;;5072676;28;19944;-71
2021/03/09 11:13:18;;;;;;;;;;;9.60;67.60;;;;;;5073186;28;19908;-73
2021/03/09 11:15:43;;;;;;;;;;;9.50;65.70;;;;;;5054120;28;19923;-72
2021/03/09 11:18:09;;;;;;;;;;;9.60;62.40;;;;;;5072966;28;20226;-72
2021/03/09 11:20:34;;;;;;;;;;;9.70;61.60;;;;;;5054645;28;19912;-71
2021/03/09 11:23:00;;;;;;;;;;;9.60;61.20;;;;;;5072881;28;20368;-71
2021/03/09 11:25:26;;;;;;;;;;;9.70;61.20;;;;;;5055894;28;19916;-69
2021/03/09 11:27:53;;;;;;;;;;;9.70;61.50;;;;;;5077397;28;19994;-70
2021/03/09 11:30:19;;;;;;;;;;;10.00;62.10;;;;;;5054606;28;20289;-73
2021/03/09 11:32:45;;;;;;;;;;;9.70;61.60;;;;;;5054800;28;19916;-71
2021/03/09 11:35:10;;;;;;;;;;;9.50;61.60;;;;;;5071893;28;19904;-71
2021/03/09 11:37:36;;;;;;;;;;;9.50;62.30;;;;;;5081605;28;19908;-71
2021/03/09 11:40:04;;;;;;;;;;;9.40;61.40;;;;;;5054733;28;20362;-69
2021/03/09 11:42:29;;;;;;;;;;;9.10;61.60;;;;;;5071911;28;19916;-71
2021/03/09 11:44:55;;;;;;;;;;;9.40;62.70;;;;;;5072294;28;20326;-69
2021/03/09 11:47:21;;;;;;;;;;;9.70;63.00;;;;;;5072368;28;19930;-70
2021/03/09 11:49:47;;;;;;;;;;;9.90;61.50;;;;;;5072030;28;19999;-72
2021/03/09 11:52:12;;;;;;;;;;;9.90;60.10;;;;;;5055104;28;20306;-70
2021/03/09 11:54:38;;;;;;;;;;;9.90;59.70;;;;;;5073045;28;19908;-71
2021/03/09 11:57:04;;;;;;;;;;;10.00;59.00;;;;;;5073283;28;20003;-70
2021/03/09 11:59:29;;;;;;;;;;;10.10;58.80;;;;;;5054393;28;19920;-75
2021/03/09 12:01:56;;;;;;;;;;;10.10;57.90;;;;;;5065136;28;20644;-71
2021/03/09 12:04:21;;;;;;;;;;;10.00;57.80;;;;;;5054301;28;19935;-72
2021/03/09 12:06:47;;;;;;;;;;;10.10;58.20;;;;;;5054653;28;19904;-71
2021/03/09 12:09:14;;;;;;;;;;;10.20;57.70;;;;;;5072278;28;20343;-73
2021/03/09 12:11:40;;;;;;;;;;;10.40;59.30;;;;;;5050915;28;19954;-72
2021/03/09 12:14:05;;;;;;;;;;;10.20;58.70;;;;;;5057406;28;19920;-74
2021/03/09 12:16:31;;;;;;;;;;;10.30;59.00;;;;;;5072729;28;19916;-72
2021/03/09 12:18:57;;;;;;;;;;;10.40;58.30;;;;;;5072458;28;19908;-73
2021/03/09 12:21:22;;;;;;;;;;;10.50;58.50;;;;;;5075152;28;20024;-71
2021/03/09 12:23:48;;;;;;;;;;;10.60;58.50;;;;;;5071508;28;19986;-73
2021/03/09 12:26:13;;;;;;;;;;;10.70;58.40;;;;;;5072040;28;19909;-73
2021/03/09 12:28:39;;;;;;;;;;;10.50;58.80;;;;;;5054959;28;19905;-71
2021/03/09 12:31:04;;;;;;;;;;;10.50;58.50;;;;;;5072717;28;19953;-70
2021/03/09 12:33:30;;;;;;;;;;;10.50;58.10;;;;;;5071805;28;20274;-72
2021/03/09 12:35:56;;;;;;;;;;;10.50;57.80;;;;;;5071978;28;19915;-72
2021/03/09 12:38:22;;;;;;;;;;;10.40;57.50;;;;;;5083387;28;19908;-71
2021/03/09 12:40:48;;;;;;;;;;;10.30;58.00;;;;;;5072274;28;19905;-73
2021/03/09 12:43:14;;;;;;;;;;;10.20;58.90;;;;;;5072106;28;19916;-72
2021/03/09 12:45:39;;;;;;;;;;;10.30;59.00;;;;;;5071569;28;20347;-71
2021/03/09 12:48:05;;;;;;;;;;;10.10;59.50;;;;;;5054128;28;19948;-73
2021/03/09 12:50:31;;;;;;;;;;;10.30;61.10;;;;;;5076645;28;19908;-70
2021/03/09 12:52:59;;;;;;;;;;;10.10;60.00;;;;;;5053630;28;19999;-74
2021/03/09 12:55:25;;;;;;;;;;;10.20;60.10;;;;;;5071732;28;19912;-70
2021/03/09 12:57:50;;;;;;;;;;;10.10;59.70;;;;;;5071363;28;19931;-75
2021/03/09 13:00:16;;;;;;;;;;;10.30;60.10;;;;;;5071549;28;19939;-71
2021/03/09 13:02:42;;;;;;;;;;;10.20;60.20;;;;;;5070868;28;19924;-71
2021/03/09 13:05:08;;;;;;;;;;;10.30;59.10;;;;;;5070564;28;19954;-76
2021/03/09 13:07:34;;;;;;;;;;;10.30;58.40;;;;;;5070512;28;20318;-73
2021/03/09 13:09:59;;;;;;;;;;;10.20;58.20;;;;;;5071308;28;19992;-70
2021/03/09 13:12:25;;;;;;;;;;;10.20;57.80;;;;;;5075869;28;19947;-70
2021/03/09 13:14:50;;;;;;;;;;;10.20;57.50;;;;;;5071625;28;19924;-72
2021/03/09 13:17:23;;;;;;;;;;;10.00;57.80;;;;;;5071491;28;19960;-73
2021/03/09 13:19:49;;;;;;;;;;;10.00;58.00;;;;;;5052873;28;19913;-72
2021/03/09 13:22:14;;;;;;;;;;;9.60;58.20;;;;;;5074916;28;19912;-74
2021/03/09 13:24:40;;;;;;;;;;;9.70;58.80;;;;;;5071434;28;20377;-71
2021/03/09 13:27:06;;;;;;;;;;;9.80;58.50;;;;;;5053619;28;19916;-72
2021/03/09 13:29:31;;;;;;;;;;;9.80;58.90;;;;;;5073110;28;20345;-76
2021/03/09 13:31:57;;;;;;;;;;;9.90;59.50;;;;;;5070602;28;20362;-70
2021/03/09 13:34:22;;;;;;;;;;;10.00;59.70;;;;;;5070930;28;19935;-72
2021/03/09 13:36:48;;;;;;;;;;;10.00;59.60;;;;;;5074034;28;20300;-71
2021/03/09 13:39:13;;;;;;;;;;;9.90;59.20;;;;;;5075940;28;19912;-73
2021/03/09 13:41:39;;;;;;;;;;;9.90;59.40;;;;;;5074711;28;19904;-74
2021/03/09 13:44:06;;;;;;;;;;;9.80;59.70;;;;;;5057036;28;19956;-70
2021/03/09 13:46:32;;;;;;;;;;;9.70;61.00;;;;;;5075193;28;20012;-73
2021/03/09 13:48:57;;;;;;;;;;;9.80;60.10;;;;;;5074702;28;20335;-69
2021/03/09 13:51:23;;;;;;;;;;;9.80;59.90;;;;;;5074563;28;19923;-70
2021/03/09 13:53:49;;;;;;;;;;;9.80;59.20;;;;;;5075053;28;19939;-71
2021/03/09 13:56:14;;;;;;;;;;;9.70;58.90;;;;;;5075007;28;19924;-75
2021/03/09 13:58:40;;;;;;;;;;;9.90;59.10;;;;;;5057120;28;19995;-70
2021/03/09 14:01:06;;;;;;;;;;;10.00;58.50;;;;;;5075098;28;19904;-74
2021/03/09 14:03:31;;;;;;;;;;;10.00;58.80;;;;;;5074864;28;19911;-71
2021/03/09 14:05:57;;;;;;;;;;;9.90;58.40;;;;;;5074680;28;20003;-71
2021/03/09 14:08:22;;;;;;;;;;;9.70;58.30;;;;;;5057547;28;19908;-71
2021/03/09 14:10:48;;;;;;;;;;;9.60;59.60;;;;;;5062029;28;19917;-77
2021/03/09 14:13:17;;;;;;;;;;;9.70;61.20;;;;;;5070032;28;19908;-74
2021/03/09 14:15:42;;;;;;;;;;;9.80;60.60;;;;;;5085728;28;19919;-71
2021/03/09 14:18:08;;;;;;;;;;;9.70;59.70;;;;;;5076006;28;20251;-75
2021/03/09 14:20:34;;;;;;;;;;;9.60;60.00;;;;;;5074407;28;19911;-72
2021/03/09 14:23:00;;;;;;;;;;;9.70;60.90;;;;;;5056624;28;19912;-72
2021/03/09 14:25:25;;;;;;;;;;;9.60;59.00;;;;;;5075720;28;19977;-72
2021/03/09 14:27:51;;;;;;;;;;;9.50;58.90;;;;;;5056443;28;19944;-72
2021/03/09 14:30:18;;;;;;;;;;;9.30;59.30;;;;;;5078493;28;19904;-73